Stokes Bridge, South Carolina
Current Conditions -  °F | °C
As of 10:55 AM on Thursday 23 Oct 2014 (Local Time) from KHVS Reporting Station
Clear Clear  
Wind Chill: 61°   Ceiling: Unl
Heat Index: 61°   Visibility: 10mi
Dew Point: 21°   Wind: 8mph
Humidity: 22%   Direction: 10°N
Pressure: 30.08"   Gusts: NA
Location:  34.2324°N, 80.2824°W
Report Text: KHVS 231455Z AUTO 01007KT 10SM CLR 16/M06 A3008 RMK AO2
Loading
Personal Weather Stations






























Interactive Weather Map
Tropical Storm Tracking
New forecast layout! Learn more

10-Day Weather Forecast

Advertisements
Track Severe Weather on mobile